sensor_id;sensor_type;location;lat;lon;timestamp;P1;durP1;ratioP1;P2;durP2;ratioP2
58974;SDS011;44751;52.236;5.178;2023-09-07T00:01:10;6.10;;;4.60;;
58974;SDS011;44751;52.236;5.178;2023-09-07T00:03:37;5.82;;;5.10;;
58974;SDS011;44751;52.236;5.178;2023-09-07T00:06:06;7.30;;;5.15;;
58974;SDS011;44751;52.236;5.178;2023-09-07T00:08:33;5.88;;;4.63;;
58974;SDS011;44751;52.236;5.178;2023-09-07T00:11:06;5.10;;;4.60;;
58974;SDS011;44751;52.236;5.178;2023-09-07T00:13:34;6.32;;;5.20;;
58974;SDS011;44751;52.236;5.178;2023-09-07T00:16:02;5.90;;;4.85;;
58974;SDS011;44751;52.236;5.178;2023-09-07T00:18:30;6.55;;;4.93;;
58974;SDS011;44751;52.236;5.178;2023-09-07T00:21:00;6.82;;;5.10;;
58974;SDS011;44751;52.236;5.178;2023-09-07T00:23:28;6.35;;;4.43;;
58974;SDS011;44751;52.236;5.178;2023-09-07T00:25:55;6.35;;;5.10;;
58974;SDS011;44751;52.236;5.178;2023-09-07T00:28:22;6.57;;;4.75;;
58974;SDS011;44751;52.236;5.178;2023-09-07T00:30:48;6.18;;;4.97;;
58974;SDS011;44751;52.236;5.178;2023-09-07T00:33:15;5.93;;;4.60;;
58974;SDS011;44751;52.236;5.178;2023-09-07T00:35:41;7.07;;;4.97;;
58974;SDS011;44751;52.236;5.178;2023-09-07T00:38:08;7.93;;;5.13;;
58974;SDS011;44751;52.236;5.178;2023-09-07T00:40:36;6.15;;;5.18;;
58974;SDS011;44751;52.236;5.178;2023-09-07T00:43:03;6.57;;;5.10;;
58974;SDS011;44751;52.236;5.178;2023-09-07T00:45:29;6.88;;;5.10;;
58974;SDS011;44751;52.236;5.178;2023-09-07T00:47:56;7.30;;;5.28;;
58974;SDS011;44751;52.236;5.178;2023-09-07T00:50:23;5.13;;;4.55;;
58974;SDS011;44751;52.236;5.178;2023-09-07T00:52:49;6.32;;;4.68;;
58974;SDS011;44751;52.236;5.178;2023-09-07T00:55:16;5.72;;;4.55;;
58974;SDS011;44751;52.236;5.178;2023-09-07T00:57:43;6.07;;;4.88;;
58974;SDS011;44751;52.236;5.178;2023-09-07T01:00:10;7.68;;;5.20;;
58974;SDS011;44751;52.236;5.178;2023-09-07T01:02:37;6.57;;;4.35;;
58974;SDS011;44751;52.236;5.178;2023-09-07T01:05:03;5.68;;;5.07;;
58974;SDS011;44751;52.236;5.178;2023-09-07T01:07:38;5.45;;;4.00;;
58974;SDS011;44751;52.236;5.178;2023-09-07T01:10:09;6.53;;;5.20;;
58974;SDS011;44751;52.236;5.178;2023-09-07T01:12:36;7.28;;;4.93;;
58974;SDS011;44751;52.236;5.178;2023-09-07T01:15:02;6.18;;;4.18;;
58974;SDS011;44751;52.236;5.178;2023-09-07T01:17:30;7.55;;;5.40;;
58974;SDS011;44751;52.236;5.178;2023-09-07T01:19:57;5.60;;;4.80;;
58974;SDS011;44751;52.236;5.178;2023-09-07T01:22:30;5.78;;;4.32;;
58974;SDS011;44751;52.236;5.178;2023-09-07T01:24:57;6.90;;;4.70;;
58974;SDS011;44751;52.236;5.178;2023-09-07T01:27:29;5.63;;;4.38;;
58974;SDS011;44751;52.236;5.178;2023-09-07T01:29:57;5.45;;;4.90;;
58974;SDS011;44751;52.236;5.178;2023-09-07T01:32:23;6.00;;;4.55;;
58974;SDS011;44751;52.236;5.178;2023-09-07T01:34:50;5.63;;;5.03;;
58974;SDS011;44751;52.236;5.178;2023-09-07T01:37:21;6.10;;;4.85;;
58974;SDS011;44751;52.236;5.178;2023-09-07T01:39:47;6.13;;;5.15;;
58974;SDS011;44751;52.236;5.178;2023-09-07T01:42:14;5.57;;;4.88;;
58974;SDS011;44751;52.236;5.178;2023-09-07T01:44:41;6.95;;;5.10;;
58974;SDS011;44751;52.236;5.178;2023-09-07T01:47:08;6.00;;;4.88;;
58974;SDS011;44751;52.236;5.178;2023-09-07T01:49:37;6.13;;;5.40;;
58974;SDS011;44751;52.236;5.178;2023-09-07T01:52:04;8.25;;;5.10;;
58974;SDS011;44751;52.236;5.178;2023-09-07T01:54:31;7.18;;;5.00;;
58974;SDS011;44751;52.236;5.178;2023-09-07T01:56:57;6.82;;;5.07;;
58974;SDS011;44751;52.236;5.178;2023-09-07T01:59:24;7.40;;;5.38;;
58974;SDS011;44751;52.236;5.178;2023-09-07T02:01:50;5.65;;;5.05;;
58974;SDS011;44751;52.236;5.178;2023-09-07T02:04:17;6.18;;;5.40;;
58974;SDS011;44751;52.236;5.178;2023-09-07T02:06:43;5.25;;;4.75;;
58974;SDS011;44751;52.236;5.178;2023-09-07T02:09:10;8.65;;;5.25;;
58974;SDS011;44751;52.236;5.178;2023-09-07T02:11:36;6.88;;;4.82;;
58974;SDS011;44751;52.236;5.178;2023-09-07T02:14:04;6.63;;;4.78;;
58974;SDS011;44751;52.236;5.178;2023-09-07T02:16:33;8.73;;;5.13;;
58974;SDS011;44751;52.236;5.178;2023-09-07T02:19:01;5.40;;;4.88;;
58974;SDS011;44751;52.236;5.178;2023-09-07T02:21:30;5.30;;;4.80;;
58974;SDS011;44751;52.236;5.178;2023-09-07T02:23:56;6.13;;;5.25;;
58974;SDS011;44751;52.236;5.178;2023-09-07T02:26:23;9.75;;;5.50;;
58974;SDS011;44751;52.236;5.178;2023-09-07T02:28:49;7.40;;;5.53;;
58974;SDS011;44751;52.236;5.178;2023-09-07T02:31:16;6.80;;;6.00;;
58974;SDS011;44751;52.236;5.178;2023-09-07T02:33:42;6.82;;;5.88;;
58974;SDS011;44751;52.236;5.178;2023-09-07T02:36:09;9.88;;;6.88;;
58974;SDS011;44751;52.236;5.178;2023-09-07T02:38:35;7.53;;;6.10;;
58974;SDS011;44751;52.236;5.178;2023-09-07T02:41:02;10.32;;;5.85;;
58974;SDS011;44751;52.236;5.178;2023-09-07T02:43:28;7.57;;;6.05;;
58974;SDS011;44751;52.236;5.178;2023-09-07T02:45:57;7.13;;;6.07;;
58974;SDS011;44751;52.236;5.178;2023-09-07T02:48:23;7.60;;;6.00;;
58974;SDS011;44751;52.236;5.178;2023-09-07T02:50:50;7.82;;;6.40;;
58974;SDS011;44751;52.236;5.178;2023-09-07T02:53:16;7.88;;;6.07;;
58974;SDS011;44751;52.236;5.178;2023-09-07T02:55:43;7.70;;;6.03;;
58974;SDS011;44751;52.236;5.178;2023-09-07T02:58:10;7.45;;;6.32;;
58974;SDS011;44751;52.236;5.178;2023-09-07T03:00:40;8.68;;;6.22;;
58974;SDS011;44751;52.236;5.178;2023-09-07T03:03:09;7.18;;;6.25;;
58974;SDS011;44751;52.236;5.178;2023-09-07T03:05:38;7.97;;;6.63;;
58974;SDS011;44751;52.236;5.178;2023-09-07T03:08:08;8.50;;;6.00;;
58974;SDS011;44751;52.236;5.178;2023-09-07T03:10:35;9.07;;;6.57;;
58974;SDS011;44751;52.236;5.178;2023-09-07T03:13:02;7.03;;;6.30;;
58974;SDS011;44751;52.236;5.178;2023-09-07T03:15:29;9.88;;;7.65;;
58974;SDS011;44751;52.236;5.178;2023-09-07T03:17:55;8.88;;;6.60;;
58974;SDS011;44751;52.236;5.178;2023-09-07T03:20:22;7.82;;;6.53;;
58974;SDS011;44751;52.236;5.178;2023-09-07T03:22:48;8.32;;;6.25;;
58974;SDS011;44751;52.236;5.178;2023-09-07T03:25:15;8.43;;;6.78;;
58974;SDS011;44751;52.236;5.178;2023-09-07T03:27:41;8.07;;;7.20;;
58974;SDS011;44751;52.236;5.178;2023-09-07T03:30:08;8.60;;;6.90;;
58974;SDS011;44751;52.236;5.178;2023-09-07T03:32:35;8.15;;;6.75;;
58974;SDS011;44751;52.236;5.178;2023-09-07T03:35:04;8.45;;;6.93;;
58974;SDS011;44751;52.236;5.178;2023-09-07T03:37:34;10.60;;;7.43;;
58974;SDS011;44751;52.236;5.178;2023-09-07T03:40:00;7.45;;;6.65;;
58974;SDS011;44751;52.236;5.178;2023-09-07T03:42:29;7.80;;;6.60;;
58974;SDS011;44751;52.236;5.178;2023-09-07T03:44:55;7.43;;;6.65;;
58974;SDS011;44751;52.236;5.178;2023-09-07T03:47:22;9.57;;;6.60;;
58974;SDS011;44751;52.236;5.178;2023-09-07T03:49:53;8.02;;;6.70;;
58974;SDS011;44751;52.236;5.178;2023-09-07T03:52:20;8.30;;;6.78;;
58974;SDS011;44751;52.236;5.178;2023-09-07T03:54:49;7.68;;;6.68;;
58974;SDS011;44751;52.236;5.178;2023-09-07T03:57:16;7.55;;;6.75;;
58974;SDS011;44751;52.236;5.178;2023-09-07T03:59:43;7.93;;;6.70;;
58974;SDS011;44751;52.236;5.178;2023-09-07T04:02:10;8.82;;;6.85;;
58974;SDS011;44751;52.236;5.178;2023-09-07T04:04:37;7.95;;;6.75;;
58974;SDS011;44751;52.236;5.178;2023-09-07T04:07:04;9.02;;;6.97;;
58974;SDS011;44751;52.236;5.178;2023-09-07T04:09:30;6.97;;;6.28;;
58974;SDS011;44751;52.236;5.178;2023-09-07T04:11:59;8.52;;;6.88;;
58974;SDS011;44751;52.236;5.178;2023-09-07T04:14:28;9.07;;;6.50;;
58974;SDS011;44751;52.236;5.178;2023-09-07T04:16:55;9.20;;;7.35;;
58974;SDS011;44751;52.236;5.178;2023-09-07T04:19:23;9.13;;;7.35;;
58974;SDS011;44751;52.236;5.178;2023-09-07T04:21:49;7.72;;;6.88;;
58974;SDS011;44751;52.236;5.178;2023-09-07T04:24:16;8.95;;;7.22;;
58974;SDS011;44751;52.236;5.178;2023-09-07T04:26:43;9.40;;;6.88;;
58974;SDS011;44751;52.236;5.178;2023-09-07T04:29:09;9.73;;;7.35;;
58974;SDS011;44751;52.236;5.178;2023-09-07T04:31:36;8.23;;;7.03;;
58974;SDS011;44751;52.236;5.178;2023-09-07T04:34:03;7.40;;;6.60;;
58974;SDS011;44751;52.236;5.178;2023-09-07T04:36:29;10.02;;;7.13;;
58974;SDS011;44751;52.236;5.178;2023-09-07T04:38:56;8.57;;;7.20;;
58974;SDS011;44751;52.236;5.178;2023-09-07T04:41:23;8.98;;;7.15;;
58974;SDS011;44751;52.236;5.178;2023-09-07T04:43:49;10.38;;;7.63;;
58974;SDS011;44751;52.236;5.178;2023-09-07T04:46:16;8.60;;;7.00;;
58974;SDS011;44751;52.236;5.178;2023-09-07T04:48:43;8.55;;;7.43;;
58974;SDS011;44751;52.236;5.178;2023-09-07T04:51:10;8.07;;;7.15;;
58974;SDS011;44751;52.236;5.178;2023-09-07T04:53:37;10.52;;;7.40;;
58974;SDS011;44751;52.236;5.178;2023-09-07T04:56:05;8.45;;;7.28;;
58974;SDS011;44751;52.236;5.178;2023-09-07T04:58:33;10.50;;;7.68;;
58974;SDS011;44751;52.236;5.178;2023-09-07T05:01:07;8.93;;;7.63;;
58974;SDS011;44751;52.236;5.178;2023-09-07T05:03:37;8.80;;;7.70;;
58974;SDS011;44751;52.236;5.178;2023-09-07T05:06:05;8.43;;;7.45;;
58974;SDS011;44751;52.236;5.178;2023-09-07T05:08:32;8.25;;;6.90;;
58974;SDS011;44751;52.236;5.178;2023-09-07T05:10:59;10.77;;;7.88;;
58974;SDS011;44751;52.236;5.178;2023-09-07T05:13:27;9.43;;;7.43;;
58974;SDS011;44751;52.236;5.178;2023-09-07T05:15:55;10.43;;;8.02;;
58974;SDS011;44751;52.236;5.178;2023-09-07T05:18:22;10.05;;;8.02;;
58974;SDS011;44751;52.236;5.178;2023-09-07T05:20:48;10.05;;;7.25;;
58974;SDS011;44751;52.236;5.178;2023-09-07T05:23:16;10.10;;;7.38;;
58974;SDS011;44751;52.236;5.178;2023-09-07T05:25:51;8.40;;;7.18;;
58974;SDS011;44751;52.236;5.178;2023-09-07T05:28:20;10.50;;;8.40;;
58974;SDS011;44751;52.236;5.178;2023-09-07T05:30:47;8.68;;;7.65;;
58974;SDS011;44751;52.236;5.178;2023-09-07T05:33:16;10.20;;;8.00;;
58974;SDS011;44751;52.236;5.178;2023-09-07T05:35:43;9.90;;;7.32;;
58974;SDS011;44751;52.236;5.178;2023-09-07T05:38:12;10.27;;;8.00;;
58974;SDS011;44751;52.236;5.178;2023-09-07T05:40:39;11.13;;;8.00;;
58974;SDS011;44751;52.236;5.178;2023-09-07T05:43:07;10.68;;;7.93;;
58974;SDS011;44751;52.236;5.178;2023-09-07T05:45:35;9.30;;;7.45;;
58974;SDS011;44751;52.236;5.178;2023-09-07T05:48:03;8.50;;;7.30;;
58974;SDS011;44751;52.236;5.178;2023-09-07T05:50:34;10.45;;;7.32;;
58974;SDS011;44751;52.236;5.178;2023-09-07T05:53:01;10.73;;;8.52;;
58974;SDS011;44751;52.236;5.178;2023-09-07T05:55:28;11.93;;;9.10;;
58974;SDS011;44751;52.236;5.178;2023-09-07T05:57:55;12.45;;;9.20;;
58974;SDS011;44751;52.236;5.178;2023-09-07T06:00:23;11.15;;;8.63;;
58974;SDS011;44751;52.236;5.178;2023-09-07T06:02:50;9.25;;;7.35;;
58974;SDS011;44751;52.236;5.178;2023-09-07T06:05:16;8.77;;;7.55;;
58974;SDS011;44751;52.236;5.178;2023-09-07T06:07:44;9.82;;;7.60;;
58974;SDS011;44751;52.236;5.178;2023-09-07T06:10:10;12.93;;;8.18;;
58974;SDS011;44751;52.236;5.178;2023-09-07T06:12:37;10.80;;;8.02;;
58974;SDS011;44751;52.236;5.178;2023-09-07T06:15:06;9.88;;;8.10;;
58974;SDS011;44751;52.236;5.178;2023-09-07T06:17:34;9.40;;;8.00;;
58974;SDS011;44751;52.236;5.178;2023-09-07T06:20:00;13.73;;;8.75;;
58974;SDS011;44751;52.236;5.178;2023-09-07T06:22:27;11.65;;;8.02;;
58974;SDS011;44751;52.236;5.178;2023-09-07T06:24:54;10.65;;;8.10;;
58974;SDS011;44751;52.236;5.178;2023-09-07T06:27:21;9.77;;;8.05;;
58974;SDS011;44751;52.236;5.178;2023-09-07T06:29:50;10.52;;;7.45;;
58974;SDS011;44751;52.236;5.178;2023-09-07T06:32:17;13.88;;;7.38;;
58974;SDS011;44751;52.236;5.178;2023-09-07T06:34:44;9.68;;;8.43;;
58974;SDS011;44751;52.236;5.178;2023-09-07T06:37:11;12.77;;;9.00;;
58974;SDS011;44751;52.236;5.178;2023-09-07T06:39:38;11.70;;;9.13;;
58974;SDS011;44751;52.236;5.178;2023-09-07T06:42:07;10.63;;;8.60;;
58974;SDS011;44751;52.236;5.178;2023-09-07T06:44:34;11.50;;;8.85;;
58974;SDS011;44751;52.236;5.178;2023-09-07T06:47:00;10.18;;;8.85;;
58974;SDS011;44751;52.236;5.178;2023-09-07T06:49:27;11.10;;;9.48;;
58974;SDS011;44751;52.236;5.178;2023-09-07T06:51:55;11.38;;;8.20;;
58974;SDS011;44751;52.236;5.178;2023-09-07T06:54:27;12.23;;;8.82;;
58974;SDS011;44751;52.236;5.178;2023-09-07T06:56:54;11.68;;;8.90;;
58974;SDS011;44751;52.236;5.178;2023-09-07T06:59:21;15.27;;;9.50;;
58974;SDS011;44751;52.236;5.178;2023-09-07T07:01:47;13.93;;;9.50;;
58974;SDS011;44751;52.236;5.178;2023-09-07T07:04:14;11.05;;;8.27;;
58974;SDS011;44751;52.236;5.178;2023-09-07T07:06:43;10.55;;;8.20;;
58974;SDS011;44751;52.236;5.178;2023-09-07T07:09:10;10.38;;;8.23;;
58974;SDS011;44751;52.236;5.178;2023-09-07T07:11:36;12.15;;;8.38;;
58974;SDS011;44751;52.236;5.178;2023-09-07T07:14:04;11.40;;;8.40;;
58974;SDS011;44751;52.236;5.178;2023-09-07T07:16:30;10.52;;;8.63;;
58974;SDS011;44751;52.236;5.178;2023-09-07T07:18:57;11.35;;;9.07;;
58974;SDS011;44751;52.236;5.178;2023-09-07T07:21:23;9.48;;;7.70;;
58974;SDS011;44751;52.236;5.178;2023-09-07T07:23:50;12.13;;;8.35;;
58974;SDS011;44751;52.236;5.178;2023-09-07T07:26:16;10.40;;;8.52;;
58974;SDS011;44751;52.236;5.178;2023-09-07T07:28:43;10.25;;;8.40;;
58974;SDS011;44751;52.236;5.178;2023-09-07T07:31:10;10.93;;;8.55;;
58974;SDS011;44751;52.236;5.178;2023-09-07T07:33:41;9.63;;;8.63;;
58974;SDS011;44751;52.236;5.178;2023-09-07T07:36:07;10.23;;;8.02;;
58974;SDS011;44751;52.236;5.178;2023-09-07T07:38:36;12.05;;;8.90;;
58974;SDS011;44751;52.236;5.178;2023-09-07T07:41:03;11.82;;;8.65;;
58974;SDS011;44751;52.236;5.178;2023-09-07T07:43:30;12.40;;;8.57;;
58974;SDS011;44751;52.236;5.178;2023-09-07T07:46:01;10.82;;;8.27;;
58974;SDS011;44751;52.236;5.178;2023-09-07T07:48:28;10.65;;;8.95;;
58974;SDS011;44751;52.236;5.178;2023-09-07T07:50:55;10.50;;;8.63;;
58974;SDS011;44751;52.236;5.178;2023-09-07T07:53:22;9.82;;;7.72;;
58974;SDS011;44751;52.236;5.178;2023-09-07T07:55:48;10.25;;;7.88;;
58974;SDS011;44751;52.236;5.178;2023-09-07T07:58:17;9.38;;;7.32;;
58974;SDS011;44751;52.236;5.178;2023-09-07T08:00:44;11.85;;;8.27;;
58974;SDS011;44751;52.236;5.178;2023-09-07T08:03:12;10.77;;;7.88;;
58974;SDS011;44751;52.236;5.178;2023-09-07T08:05:39;11.25;;;8.02;;
58974;SDS011;44751;52.236;5.178;2023-09-07T08:08:08;11.70;;;7.88;;
58974;SDS011;44751;52.236;5.178;2023-09-07T08:10:38;8.32;;;7.47;;
58974;SDS011;44751;52.236;5.178;2023-09-07T08:13:06;11.18;;;8.40;;
58974;SDS011;44751;52.236;5.178;2023-09-07T08:15:33;12.32;;;7.88;;
58974;SDS011;44751;52.236;5.178;2023-09-07T08:18:00;8.18;;;7.07;;
58974;SDS011;44751;52.236;5.178;2023-09-07T08:20:27;9.23;;;7.82;;
58974;SDS011;44751;52.236;5.178;2023-09-07T08:22:55;10.55;;;8.18;;
58974;SDS011;44751;52.236;5.178;2023-09-07T08:25:22;9.75;;;7.70;;
58974;SDS011;44751;52.236;5.178;2023-09-07T08:27:50;9.25;;;7.55;;
58974;SDS011;44751;52.236;5.178;2023-09-07T08:30:20;8.73;;;6.93;;
58974;SDS011;44751;52.236;5.178;2023-09-07T08:32:49;9.63;;;7.40;;
58974;SDS011;44751;52.236;5.178;2023-09-07T08:35:16;10.05;;;6.57;;
58974;SDS011;44751;52.236;5.178;2023-09-07T08:37:43;10.20;;;7.00;;
58974;SDS011;44751;52.236;5.178;2023-09-07T08:40:09;9.57;;;7.57;;
58974;SDS011;44751;52.236;5.178;2023-09-07T08:42:36;10.23;;;6.60;;
58974;SDS011;44751;52.236;5.178;2023-09-07T08:45:03;9.23;;;7.20;;
58974;SDS011;44751;52.236;5.178;2023-09-07T08:47:33;11.38;;;7.22;;
58974;SDS011;44751;52.236;5.178;2023-09-07T08:50:01;10.52;;;7.50;;
58974;SDS011;44751;52.236;5.178;2023-09-07T08:52:28;11.02;;;6.75;;
58974;SDS011;44751;52.236;5.178;2023-09-07T08:54:56;7.90;;;6.53;;
58974;SDS011;44751;52.236;5.178;2023-09-07T08:57:25;10.80;;;6.95;;
58974;SDS011;44751;52.236;5.178;2023-09-07T08:59:53;8.35;;;6.78;;
58974;SDS011;44751;52.236;5.178;2023-09-07T09:02:20;8.50;;;6.75;;
58974;SDS011;44751;52.236;5.178;2023-09-07T09:04:46;9.63;;;6.70;;
58974;SDS011;44751;52.236;5.178;2023-09-07T09:07:13;8.57;;;6.80;;
58974;SDS011;44751;52.236;5.178;2023-09-07T09:09:39;7.15;;;6.28;;
58974;SDS011;44751;52.236;5.178;2023-09-07T09:12:09;8.27;;;5.47;;
58974;SDS011;44751;52.236;5.178;2023-09-07T09:14:36;9.73;;;6.68;;
58974;SDS011;44751;52.236;5.178;2023-09-07T09:17:03;6.95;;;4.95;;
58974;SDS011;44751;52.236;5.178;2023-09-07T09:19:33;8.60;;;5.78;;
58974;SDS011;44751;52.236;5.178;2023-09-07T09:22:00;6.38;;;5.63;;
58974;SDS011;44751;52.236;5.178;2023-09-07T09:24:31;5.95;;;5.13;;
58974;SDS011;44751;52.236;5.178;2023-09-07T09:26:58;8.07;;;4.50;;
58974;SDS011;44751;52.236;5.178;2023-09-07T09:29:26;5.93;;;4.20;;
58974;SDS011;44751;52.236;5.178;2023-09-07T09:31:53;6.45;;;4.22;;
58974;SDS011;44751;52.236;5.178;2023-09-07T09:34:20;4.80;;;4.13;;
58974;SDS011;44751;52.236;5.178;2023-09-07T09:36:46;6.47;;;4.32;;
58974;SDS011;44751;52.236;5.178;2023-09-07T09:39:22;8.50;;;4.07;;
58974;SDS011;44751;52.236;5.178;2023-09-07T09:41:50;5.50;;;3.97;;
58974;SDS011;44751;52.236;5.178;2023-09-07T09:44:19;5.93;;;3.60;;
58974;SDS011;44751;52.236;5.178;2023-09-07T09:46:47;4.80;;;3.80;;
58974;SDS011;44751;52.236;5.178;2023-09-07T09:49:13;6.32;;;3.85;;
58974;SDS011;44751;52.236;5.178;2023-09-07T09:51:41;8.75;;;3.83;;
58974;SDS011;44751;52.236;5.178;2023-09-07T09:54:09;6.35;;;4.10;;
58974;SDS011;44751;52.236;5.178;2023-09-07T09:56:38;5.15;;;4.03;;
58974;SDS011;44751;52.236;5.178;2023-09-07T09:59:05;8.10;;;3.65;;
58974;SDS011;44751;52.236;5.178;2023-09-07T10:01:37;5.25;;;3.63;;
58974;SDS011;44751;52.236;5.178;2023-09-07T10:04:10;5.25;;;3.38;;
58974;SDS011;44751;52.236;5.178;2023-09-07T10:06:38;5.03;;;3.10;;
58974;SDS011;44751;52.236;5.178;2023-09-07T10:09:05;8.68;;;3.80;;
58974;SDS011;44751;52.236;5.178;2023-09-07T10:11:37;6.65;;;3.42;;
58974;SDS011;44751;52.236;5.178;2023-09-07T10:14:05;9.55;;;3.50;;
58974;SDS011;44751;52.236;5.178;2023-09-07T10:16:52;4.85;;;3.50;;
58974;SDS011;44751;52.236;5.178;2023-09-07T10:19:24;6.15;;;3.45;;
58974;SDS011;44751;52.236;5.178;2023-09-07T10:21:53;7.38;;;3.42;;
58974;SDS011;44751;52.236;5.178;2023-09-07T10:24:31;4.10;;;3.30;;
58974;SDS011;44751;52.236;5.178;2023-09-07T10:29:44;8.88;;;3.28;;
58974;SDS011;44751;52.236;5.178;2023-09-07T10:32:13;4.22;;;3.58;;
58974;SDS011;44751;52.236;5.178;2023-09-07T10:34:41;5.47;;;3.22;;
58974;SDS011;44751;52.236;5.178;2023-09-07T10:37:12;4.80;;;3.05;;
58974;SDS011;44751;52.236;5.178;2023-09-07T10:39:41;4.27;;;3.37;;
58974;SDS011;44751;52.236;5.178;2023-09-07T10:42:21;5.55;;;3.30;;
58974;SDS011;44751;52.236;5.178;2023-09-07T10:44:49;4.03;;;3.40;;
58974;SDS011;44751;52.236;5.178;2023-09-07T10:47:16;6.63;;;3.50;;
58974;SDS011;44751;52.236;5.178;2023-09-07T10:49:43;5.28;;;3.22;;
58974;SDS011;44751;52.236;5.178;2023-09-07T10:52:10;5.95;;;3.20;;
58974;SDS011;44751;52.236;5.178;2023-09-07T10:54:37;5.13;;;3.15;;
58974;SDS011;44751;52.236;5.178;2023-09-07T10:57:10;4.28;;;2.85;;
58974;SDS011;44751;52.236;5.178;2023-09-07T10:59:38;5.05;;;3.05;;
58974;SDS011;44751;52.236;5.178;2023-09-07T11:02:10;4.88;;;3.25;;
58974;SDS011;44751;52.236;5.178;2023-09-07T11:04:37;4.22;;;3.08;;
58974;SDS011;44751;52.236;5.178;2023-09-07T11:07:03;5.55;;;3.28;;
58974;SDS011;44751;52.236;5.178;2023-09-07T11:09:30;4.30;;;3.08;;
58974;SDS011;44751;52.236;5.178;2023-09-07T11:12:03;7.03;;;3.50;;
58974;SDS011;44751;52.236;5.178;2023-09-07T11:14:31;5.28;;;3.22;;
58974;SDS011;44751;52.236;5.178;2023-09-07T11:16:57;4.15;;;3.30;;
58974;SDS011;44751;52.236;5.178;2023-09-07T11:19:24;5.55;;;3.10;;
58974;SDS011;44751;52.236;5.178;2023-09-07T11:21:53;3.92;;;3.33;;
58974;SDS011;44751;52.236;5.178;2023-09-07T11:24:19;6.03;;;3.25;;
58974;SDS011;44751;52.236;5.178;2023-09-07T11:26:47;3.22;;;2.90;;
58974;SDS011;44751;52.236;5.178;2023-09-07T11:29:14;3.88;;;2.92;;
58974;SDS011;44751;52.236;5.178;2023-09-07T11:31:41;3.42;;;3.08;;
58974;SDS011;44751;52.236;5.178;2023-09-07T11:34:09;4.75;;;3.33;;
58974;SDS011;44751;52.236;5.178;2023-09-07T11:36:43;4.25;;;3.55;;
58974;SDS011;44751;52.236;5.178;2023-09-07T11:39:09;4.80;;;2.95;;
58974;SDS011;44751;52.236;5.178;2023-09-07T11:41:39;4.50;;;3.05;;
58974;SDS011;44751;52.236;5.178;2023-09-07T11:44:09;4.93;;;3.17;;
58974;SDS011;44751;52.236;5.178;2023-09-07T11:46:36;4.75;;;3.30;;
58974;SDS011;44751;52.236;5.178;2023-09-07T11:49:03;5.45;;;3.17;;
58974;SDS011;44751;52.236;5.178;2023-09-07T11:51:31;3.85;;;3.20;;
58974;SDS011;44751;52.236;5.178;2023-09-07T11:53:57;9.35;;;3.40;;
58974;SDS011;44751;52.236;5.178;2023-09-07T11:56:24;4.13;;;3.05;;
58974;SDS011;44751;52.236;5.178;2023-09-07T11:58:51;4.93;;;3.00;;
58974;SDS011;44751;52.236;5.178;2023-09-07T12:01:18;5.22;;;3.40;;
58974;SDS011;44751;52.236;5.178;2023-09-07T12:03:44;3.50;;;3.13;;
58974;SDS011;44751;52.236;5.178;2023-09-07T12:06:12;5.47;;;3.08;;
58974;SDS011;44751;52.236;5.178;2023-09-07T12:08:41;5.22;;;3.40;;
58974;SDS011;44751;52.236;5.178;2023-09-07T12:11:09;4.32;;;3.45;;
58974;SDS011;44751;52.236;5.178;2023-09-07T12:13:35;3.53;;;2.88;;
58974;SDS011;44751;52.236;5.178;2023-09-07T12:16:02;4.50;;;3.20;;
58974;SDS011;44751;52.236;5.178;2023-09-07T12:18:28;5.05;;;3.15;;
58974;SDS011;44751;52.236;5.178;2023-09-07T12:20:55;4.72;;;3.22;;
58974;SDS011;44751;52.236;5.178;2023-09-07T12:23:21;3.83;;;3.35;;
58974;SDS011;44751;52.236;5.178;2023-09-07T12:25:48;3.90;;;3.50;;
58974;SDS011;44751;52.236;5.178;2023-09-07T12:28:18;3.65;;;3.20;;
58974;SDS011;44751;52.236;5.178;2023-09-07T12:30:47;6.05;;;3.53;;
58974;SDS011;44751;52.236;5.178;2023-09-07T12:33:14;4.63;;;3.10;;
58974;SDS011;44751;52.236;5.178;2023-09-07T12:35:40;5.93;;;3.40;;
58974;SDS011;44751;52.236;5.178;2023-09-07T12:38:06;4.80;;;3.20;;
58974;SDS011;44751;52.236;5.178;2023-09-07T12:40:35;4.03;;;3.50;;
58974;SDS011;44751;52.236;5.178;2023-09-07T12:43:08;6.00;;;3.47;;
58974;SDS011;44751;52.236;5.178;2023-09-07T12:45:35;5.90;;;3.33;;
58974;SDS011;44751;52.236;5.178;2023-09-07T12:48:02;4.70;;;3.40;;
58974;SDS011;44751;52.236;5.178;2023-09-07T12:50:28;5.88;;;3.53;;
58974;SDS011;44751;52.236;5.178;2023-09-07T12:52:55;3.70;;;3.17;;
58974;SDS011;44751;52.236;5.178;2023-09-07T12:55:23;4.22;;;3.38;;
58974;SDS011;44751;52.236;5.178;2023-09-07T12:57:49;6.32;;;3.40;;
58974;SDS011;44751;52.236;5.178;2023-09-07T13:00:16;5.45;;;3.40;;
58974;SDS011;44751;52.236;5.178;2023-09-07T13:02:43;5.60;;;3.40;;
58974;SDS011;44751;52.236;5.178;2023-09-07T13:05:10;4.63;;;3.35;;
58974;SDS011;44751;52.236;5.178;2023-09-07T13:07:36;6.15;;;3.60;;
58974;SDS011;44751;52.236;5.178;2023-09-07T13:10:03;4.93;;;3.38;;
58974;SDS011;44751;52.236;5.178;2023-09-07T13:12:31;5.22;;;3.50;;
58974;SDS011;44751;52.236;5.178;2023-09-07T13:14:58;4.05;;;3.35;;
58974;SDS011;44751;52.236;5.178;2023-09-07T13:17:24;3.83;;;3.40;;
58974;SDS011;44751;52.236;5.178;2023-09-07T13:19:51;6.05;;;3.63;;
58974;SDS011;44751;52.236;5.178;2023-09-07T13:22:17;4.07;;;3.22;;
58974;SDS011;44751;52.236;5.178;2023-09-07T13:24:44;5.05;;;3.00;;
58974;SDS011;44751;52.236;5.178;2023-09-07T13:27:10;4.70;;;3.53;;
58974;SDS011;44751;52.236;5.178;2023-09-07T13:29:36;5.72;;;3.40;;
58974;SDS011;44751;52.236;5.178;2023-09-07T13:32:03;5.10;;;3.20;;
58974;SDS011;44751;52.236;5.178;2023-09-07T13:34:30;3.33;;;3.03;;
58974;SDS011;44751;52.236;5.178;2023-09-07T13:36:56;4.72;;;3.20;;
58974;SDS011;44751;52.236;5.178;2023-09-07T13:39:23;3.42;;;3.10;;
58974;SDS011;44751;52.236;5.178;2023-09-07T13:41:49;4.70;;;3.30;;
58974;SDS011;44751;52.236;5.178;2023-09-07T13:44:15;5.13;;;3.20;;
58974;SDS011;44751;52.236;5.178;2023-09-07T13:46:43;4.40;;;2.80;;
58974;SDS011;44751;52.236;5.178;2023-09-07T13:49:10;3.47;;;3.08;;
58974;SDS011;44751;52.236;5.178;2023-09-07T13:51:37;6.07;;;3.22;;
58974;SDS011;44751;52.236;5.178;2023-09-07T13:54:05;5.55;;;3.08;;
58974;SDS011;44751;52.236;5.178;2023-09-07T13:56:32;3.30;;;3.00;;
58974;SDS011;44751;52.236;5.178;2023-09-07T13:58:59;7.35;;;2.90;;
58974;SDS011;44751;52.236;5.178;2023-09-07T14:01:26;4.72;;;3.20;;
58974;SDS011;44751;52.236;5.178;2023-09-07T14:03:52;4.55;;;3.38;;
58974;SDS011;44751;52.236;5.178;2023-09-07T14:06:19;4.53;;;3.20;;
58974;SDS011;44751;52.236;5.178;2023-09-07T14:08:48;4.82;;;3.28;;
58974;SDS011;44751;52.236;5.178;2023-09-07T14:11:16;4.50;;;3.25;;
58974;SDS011;44751;52.236;5.178;2023-09-07T14:13:47;5.28;;;3.03;;
58974;SDS011;44751;52.236;5.178;2023-09-07T14:16:16;5.55;;;3.30;;
58974;SDS011;44751;52.236;5.178;2023-09-07T14:18:44;3.65;;;2.92;;
58974;SDS011;44751;52.236;5.178;2023-09-07T14:21:14;6.00;;;3.40;;
58974;SDS011;44751;52.236;5.178;2023-09-07T14:23:41;4.00;;;3.28;;
58974;SDS011;44751;52.236;5.178;2023-09-07T14:26:10;5.32;;;3.22;;
58974;SDS011;44751;52.236;5.178;2023-09-07T14:28:36;5.88;;;3.13;;
58974;SDS011;44751;52.236;5.178;2023-09-07T14:31:04;4.57;;;3.40;;
58974;SDS011;44751;52.236;5.178;2023-09-07T14:33:32;4.40;;;3.38;;
58974;SDS011;44751;52.236;5.178;2023-09-07T14:36:03;6.10;;;3.40;;
58974;SDS011;44751;52.236;5.178;2023-09-07T14:38:31;4.75;;;2.92;;
58974;SDS011;44751;52.236;5.178;2023-09-07T14:40:59;4.05;;;3.20;;
58974;SDS011;44751;52.236;5.178;2023-09-07T14:43:26;6.03;;;3.13;;
58974;SDS011;44751;52.236;5.178;2023-09-07T14:45:53;4.75;;;3.55;;
58974;SDS011;44751;52.236;5.178;2023-09-07T14:48:19;7.72;;;3.40;;
58974;SDS011;44751;52.236;5.178;2023-09-07T14:50:46;4.00;;;3.03;;